Time;durP1;ratioP1;P1;durP2;ratioP2;P2;SDS_P1;SDS_P2;PMS_P1;PMS_P2;Temp;Humidity;BMP_temperature;BMP_pressure;BME280_temperature;BME280_humidity;BME280_pressure;Samples;Min_cycle;Max_cycle;Signal;HPM_P1;HPM_P2
2022/08/22 00:01:45;;;;;;;27.52;21.67;;;;;;;;;;5124193;27;20498;-79
2022/08/22 00:04:38;;;;;;;25.13;21.70;;;;;;;;;;5124782;27;20021;-82
2022/08/22 00:07:13;;;;;;;28.20;22.02;;;;;;;;;;5066526;28;20047;-79
2022/08/22 00:09:58;;;;;;;25.80;19.98;;;;;;;;;;5121089;27;20377;-78
2022/08/22 00:12:45;;;;;;;25.83;22.48;;;;;;;;;;5094003;28;20467;-80
2022/08/22 00:15:25;;;;;;;27.80;23.02;;;;;;;;;;5087961;28;20028;-79
2022/08/22 00:18:09;;;;;;;29.13;22.10;;;;;;;;;;5079218;28;20099;-77
2022/08/22 00:20:35;;;;;;;28.77;21.55;;;;;;;;;;5091060;28;20039;-80
2022/08/22 00:23:11;;;;;;;27.35;23.58;;;;;;;;;;5091069;28;20558;-78
2022/08/22 00:25:55;;;;;;;28.45;23.08;;;;;;;;;;5120937;27;20060;-79
2022/08/22 00:28:21;;;;;;;29.75;24.50;;;;;;;;;;5085104;28;20027;-79
2022/08/22 00:30:53;;;;;;;28.65;23.17;;;;;;;;;;5088549;28;20044;-79
2022/08/22 00:33:23;;;;;;;29.92;22.92;;;;;;;;;;5117264;27;20028;-79
2022/08/22 00:35:52;;;;;;;25.48;21.88;;;;;;;;;;5091117;28;20019;-80
2022/08/22 00:38:26;;;;;;;26.90;23.52;;;;;;;;;;5087323;28;20399;-79
2022/08/22 00:41:03;;;;;;;32.60;27.83;;;;;;;;;;5090611;28;20379;-78
2022/08/22 00:43:45;;;;;;;31.35;27.83;;;;;;;;;;5076607;28;20036;-80
2022/08/22 00:46:11;;;;;;;25.20;22.35;;;;;;;;;;5090081;28;20032;-78
2022/08/22 00:49:03;;;;;;;27.05;23.52;;;;;;;;;;5084261;28;20024;-79
2022/08/22 00:51:49;;;;;;;26.65;21.98;;;;;;;;;;5089427;28;20123;-79
2022/08/22 00:54:27;;;;;;;25.00;21.25;;;;;;;;;;5056772;28;20036;-80
2022/08/22 00:57:12;;;;;;;25.38;20.52;;;;;;;;;;5088715;28;20024;-79
2022/08/22 00:59:56;;;;;;;28.70;23.75;;;;;;;;;;5085699;28;20563;-80
2022/08/22 01:02:41;;;;;;;34.17;23.85;;;;;;;;;;5091956;28;20031;-76
2022/08/22 01:05:07;;;;;;;27.45;22.58;;;;;;;;;;5118629;27;20035;-78
2022/08/22 01:07:53;;;;;;;26.85;22.08;;;;;;;;;;5089836;28;20043;-78
2022/08/22 01:10:35;;;;;;;29.25;25.90;;;;;;;;;;5091035;28;20036;-79
2022/08/22 01:13:13;;;;;;;33.00;27.13;;;;;;;;;;5128465;27;20016;-79
2022/08/22 01:15:41;;;;;;;38.28;28.63;;;;;;;;;;5088409;28;20027;-78
2022/08/22 01:18:13;;;;;;;35.95;27.80;;;;;;;;;;5089174;28;20073;-77
2022/08/22 01:20:58;;;;;;;40.58;29.10;;;;;;;;;;5124571;28;20020;-80
2022/08/22 01:23:36;;;;;;;39.33;30.83;;;;;;;;;;5090039;28;20040;-79
2022/08/22 01:26:21;;;;;;;43.22;29.42;;;;;;;;;;5119172;28;20050;-80
2022/08/22 01:28:59;;;;;;;39.97;30.65;;;;;;;;;;5101647;28;20123;-78
2022/08/22 01:31:44;;;;;;;38.90;29.92;;;;;;;;;;5090162;28;20036;-80
2022/08/22 01:34:30;;;;;;;40.20;29.85;;;;;;;;;;5089124;28;20016;-80
2022/08/22 01:37:08;;;;;;;37.38;30.33;;;;;;;;;;5090037;28;20395;-79
2022/08/22 01:39:34;;;;;;;36.13;28.77;;;;;;;;;;5116138;28;20036;-79
2022/08/22 01:42:07;;;;;;;36.45;28.55;;;;;;;;;;5090814;28;20103;-81
2022/08/22 01:44:51;;;;;;;39.95;30.63;;;;;;;;;;5119144;28;20077;-78
2022/08/22 01:47:38;;;;;;;45.17;31.10;;;;;;;;;;5089401;28;20043;-80
2022/08/22 01:50:23;;;;;;;38.08;27.02;;;;;;;;;;5101741;28;20494;-78
2022/08/22 01:52:59;;;;;;;34.63;27.33;;;;;;;;;;5103067;28;20028;-79
2022/08/22 01:55:44;;;;;;;34.90;26.98;;;;;;;;;;5086997;28;20059;-81
2022/08/22 01:58:21;;;;;;;36.33;28.33;;;;;;;;;;5083938;28;20016;-78
2022/08/22 02:00:54;;;;;;;33.97;27.65;;;;;;;;;;5122621;28;20106;-78
2022/08/22 02:03:26;;;;;;;31.73;26.17;;;;;;;;;;5089705;28;20020;-80
2022/08/22 02:06:13;;;;;;;33.17;26.67;;;;;;;;;;5119164;28;20406;-78
2022/08/22 02:08:59;;;;;;;35.53;26.95;;;;;;;;;;5087665;28;20039;-81
2022/08/22 02:11:34;;;;;;;39.15;30.25;;;;;;;;;;5106905;27;20182;-79
2022/08/22 02:14:07;;;;;;;34.78;27.48;;;;;;;;;;5123345;27;20073;-78
2022/08/22 02:16:33;;;;;;;31.73;24.98;;;;;;;;;;5121002;27;20016;-80
2022/08/22 02:19:10;;;;;;;39.30;30.08;;;;;;;;;;5093135;28;20027;-78
2022/08/22 02:21:39;;;;;;;34.25;26.35;;;;;;;;;;5092587;28;20067;-78
2022/08/22 02:24:16;;;;;;;36.05;27.35;;;;;;;;;;5093716;28;20146;-79
2022/08/22 02:26:53;;;;;;;39.30;28.80;;;;;;;;;;5125549;27;20024;-78
2022/08/22 02:29:30;;;;;;;31.67;26.80;;;;;;;;;;5108672;28;20028;-80
2022/08/22 02:32:17;;;;;;;37.33;27.85;;;;;;;;;;5113029;27;20476;-79
2022/08/22 02:34:48;;;;;;;39.28;27.48;;;;;;;;;;5105047;27;20032;-79
2022/08/22 02:37:17;;;;;;;35.83;26.85;;;;;;;;;;5090538;28;20504;-80
2022/08/22 02:40:02;;;;;;;36.72;26.73;;;;;;;;;;5127569;27;20028;-80
2022/08/22 02:42:55;;;;;;;36.03;27.42;;;;;;;;;;5127201;27;20045;-80
2022/08/22 02:45:24;;;;;;;32.58;26.27;;;;;;;;;;5069998;28;20032;-81
2022/08/22 02:47:56;;;;;;;31.77;25.60;;;;;;;;;;5127121;27;20027;-78
2022/08/22 02:50:25;;;;;;;31.20;25.63;;;;;;;;;;5127124;27;20036;-78
2022/08/22 02:52:54;;;;;;;31.70;26.60;;;;;;;;;;5122717;27;20074;-79
2022/08/22 02:55:29;;;;;;;33.95;27.73;;;;;;;;;;5090023;28;20032;-79
2022/08/22 02:58:08;;;;;;;34.38;27.85;;;;;;;;;;5116694;27;20099;-79
2022/08/22 03:00:42;;;;;;;38.88;28.55;;;;;;;;;;5124050;27;20020;-79
2022/08/22 03:03:16;;;;;;;36.90;27.98;;;;;;;;;;5092857;28;20447;-77
2022/08/22 03:05:42;;;;;;;39.38;27.17;;;;;;;;;;5112396;27;20364;-80
2022/08/22 03:08:13;;;;;;;35.45;28.33;;;;;;;;;;5127001;27;20050;-80
2022/08/22 03:10:41;;;;;;;37.38;28.40;;;;;;;;;;5126917;27;20671;-80
2022/08/22 03:13:09;;;;;;;38.72;29.33;;;;;;;;;;5092880;28;20020;-78
2022/08/22 03:15:48;;;;;;;31.98;27.02;;;;;;;;;;5126419;27;20025;-77
2022/08/22 03:18:14;;;;;;;35.92;26.48;;;;;;;;;;5116014;27;20563;-78
2022/08/22 03:20:48;;;;;;;38.85;28.33;;;;;;;;;;5126402;27;20042;-79
2022/08/22 03:23:27;;;;;;;33.17;25.77;;;;;;;;;;5126464;27;20341;-77
2022/08/22 03:26:12;;;;;;;29.05;24.67;;;;;;;;;;5120493;27;20055;-79
2022/08/22 03:28:50;;;;;;;38.30;28.40;;;;;;;;;;5090350;28;20055;-78
2022/08/22 03:31:17;;;;;;;34.58;26.58;;;;;;;;;;5089954;28;20032;-79
2022/08/22 03:33:44;;;;;;;30.13;24.63;;;;;;;;;;5123319;27;20023;-77
2022/08/22 03:36:12;;;;;;;35.95;25.33;;;;;;;;;;5118377;27;20027;-77
2022/08/22 03:38:43;;;;;;;33.42;24.63;;;;;;;;;;5126446;27;20139;-79
2022/08/22 03:41:13;;;;;;;38.08;25.15;;;;;;;;;;5085471;28;20429;-78
2022/08/22 03:43:58;;;;;;;31.92;24.98;;;;;;;;;;5085771;28;20059;-79
2022/08/22 03:46:30;;;;;;;43.28;28.55;;;;;;;;;;5126186;27;20029;-79
2022/08/22 03:49:14;;;;;;;46.28;29.38;;;;;;;;;;5111361;27;20024;-78
2022/08/22 03:52:00;;;;;;;39.75;29.13;;;;;;;;;;5125827;27;20358;-79
2022/08/22 03:54:36;;;;;;;46.92;29.75;;;;;;;;;;5105128;28;20463;-79
2022/08/22 03:57:20;;;;;;;41.42;29.40;;;;;;;;;;5095994;28;20031;-79
2022/08/22 04:00:05;;;;;;;43.05;31.02;;;;;;;;;;5110527;27;20239;-79
2022/08/22 04:02:50;;;;;;;49.03;31.40;;;;;;;;;;5125402;27;20077;-79
2022/08/22 04:05:35;;;;;;;42.08;30.15;;;;;;;;;;5079890;28;20058;-80
2022/08/22 04:08:09;;;;;;;42.90;30.42;;;;;;;;;;5088416;28;20017;-79
2022/08/22 04:10:38;;;;;;;45.55;31.42;;;;;;;;;;5123185;27;20526;-79
2022/08/22 04:13:17;;;;;;;44.20;29.45;;;;;;;;;;5125361;27;20016;-78
2022/08/22 04:15:46;;;;;;;43.85;30.17;;;;;;;;;;5125160;27;20030;-78
2022/08/22 04:18:23;;;;;;;43.40;29.50;;;;;;;;;;5125512;27;20024;-78
2022/08/22 04:21:10;;;;;;;41.83;27.80;;;;;;;;;;5089551;28;20020;-82
2022/08/22 04:23:39;;;;;;;40.35;29.00;;;;;;;;;;5087881;28;20028;-80
2022/08/22 04:26:15;;;;;;;44.63;29.92;;;;;;;;;;5083615;28;20111;-81
2022/08/22 04:28:44;;;;;;;39.42;28.98;;;;;;;;;;5121742;27;20417;-79
2022/08/22 04:31:12;;;;;;;37.15;27.58;;;;;;;;;;5083602;28;20028;-78
2022/08/22 04:33:51;;;;;;;41.47;27.67;;;;;;;;;;5089374;28;20020;-79
2022/08/22 04:36:17;;;;;;;40.55;26.23;;;;;;;;;;5079741;28;20042;-78
2022/08/22 04:38:52;;;;;;;41.85;29.20;;;;;;;;;;5124992;27;20020;-81
2022/08/22 04:41:24;;;;;;;40.15;28.65;;;;;;;;;;5079061;28;20052;-79
2022/08/22 04:43:50;;;;;;;41.10;28.35;;;;;;;;;;5115105;27;20059;-78
2022/08/22 04:46:35;;;;;;;35.67;26.40;;;;;;;;;;5090611;28;20017;-78
2022/08/22 04:49:05;;;;;;;41.90;29.45;;;;;;;;;;5091766;28;20534;-78
2022/08/22 04:51:40;;;;;;;42.53;30.75;;;;;;;;;;5090628;28;20127;-80
2022/08/22 04:54:16;;;;;;;37.13;27.75;;;;;;;;;;5094449;28;20030;-79
2022/08/22 04:56:57;;;;;;;36.13;26.23;;;;;;;;;;5096026;28;20017;-80
2022/08/22 04:59:23;;;;;;;38.03;27.42;;;;;;;;;;5086405;28;20475;-79
2022/08/22 05:01:54;;;;;;;37.63;26.33;;;;;;;;;;5087330;28;20108;-79
2022/08/22 05:04:28;;;;;;;34.15;25.95;;;;;;;;;;5088632;28;20015;-78
2022/08/22 05:07:07;;;;;;;35.85;27.45;;;;;;;;;;5124491;27;20423;-77
2022/08/22 05:09:35;;;;;;;31.33;25.55;;;;;;;;;;5124321;27;20027;-80
2022/08/22 05:12:10;;;;;;;36.67;27.42;;;;;;;;;;5116794;27;20124;-79
2022/08/22 05:14:39;;;;;;;33.13;24.15;;;;;;;;;;5124597;27;20385;-80
2022/08/22 05:17:07;;;;;;;28.02;23.33;;;;;;;;;;5091377;28;20024;-80
2022/08/22 05:19:35;;;;;;;31.58;24.23;;;;;;;;;;5088385;28;20055;-79
2022/08/22 05:22:01;;;;;;;29.75;24.85;;;;;;;;;;5081205;28;20613;-80
2022/08/22 05:24:32;;;;;;;26.58;21.70;;;;;;;;;;5076291;28;20099;-78
2022/08/22 05:27:00;;;;;;;32.97;23.58;;;;;;;;;;5112107;27;20095;-78
2022/08/22 05:29:28;;;;;;;33.25;23.60;;;;;;;;;;5122619;27;20101;-77
2022/08/22 05:31:57;;;;;;;29.55;22.70;;;;;;;;;;5124398;28;20500;-79
2022/08/22 05:34:25;;;;;;;27.38;22.80;;;;;;;;;;5090537;28;20024;-80
2022/08/22 05:36:57;;;;;;;32.90;22.25;;;;;;;;;;5124176;28;20028;-80
2022/08/22 05:39:24;;;;;;;27.38;22.90;;;;;;;;;;5109697;27;20020;-78
2022/08/22 05:41:52;;;;;;;28.77;22.35;;;;;;;;;;5125581;27;20522;-79
2022/08/22 05:44:25;;;;;;;27.38;22.67;;;;;;;;;;5113551;27;20016;-76
2022/08/22 05:46:51;;;;;;;;;;;;;;;;;;5128779;27;20490;-79
2022/08/22 05:49:25;;;;;;;27.60;21.63;;;;;;;;;;5128154;27;19950;-78
2022/08/22 05:51:52;;;;;;;;;;;;;;;;;;5128498;27;20077;-79
2022/08/22 05:54:19;;;;;;;29.70;21.17;;;;;;;;;;5097887;28;19904;-78
2022/08/22 05:56:53;;;;;;;25.77;22.00;;;;;;;;;;5094366;28;20028;-78
2022/08/22 05:59:31;;;;;;;30.17;23.48;;;;;;;;;;5093399;28;20028;-78
2022/08/22 06:02:00;;;;;;;25.75;21.80;;;;;;;;;;5088906;28;20028;-77
2022/08/22 06:04:32;;;;;;;27.05;22.48;;;;;;;;;;5127671;27;20032;-77
2022/08/22 06:07:05;;;;;;;24.83;20.90;;;;;;;;;;5141902;27;20027;-78
2022/08/22 06:09:36;;;;;;;29.60;21.85;;;;;;;;;;5095107;28;20020;-78
2022/08/22 06:12:10;;;;;;;25.08;22.25;;;;;;;;;;5107893;27;20505;-76
2022/08/22 06:14:51;;;;;;;29.67;21.80;;;;;;;;;;5093508;28;20024;-76
2022/08/22 06:17:23;;;;;;;28.85;21.73;;;;;;;;;;5093228;28;20024;-76
2022/08/22 06:19:50;;;;;;;24.02;20.42;;;;;;;;;;5092432;28;20020;-77
2022/08/22 06:22:26;;;;;;;25.58;20.38;;;;;;;;;;5094509;28;20035;-77
2022/08/22 06:24:54;;;;;;;24.13;19.17;;;;;;;;;;5090359;28;20391;-76
2022/08/22 06:27:21;;;;;;;24.58;21.52;;;;;;;;;;5127341;27;20060;-78
2022/08/22 06:30:00;;;;;;;27.25;22.38;;;;;;;;;;5092416;28;20052;-75
2022/08/22 06:32:31;;;;;;;24.85;20.08;;;;;;;;;;5123175;27;20033;-78
2022/08/22 06:35:01;;;;;;;25.75;22.20;;;;;;;;;;5084301;28;20867;-76
2022/08/22 06:37:32;;;;;;;25.05;22.35;;;;;;;;;;5091688;28;20530;-78
2022/08/22 06:39:59;;;;;;;25.15;22.02;;;;;;;;;;5088989;28;20020;-79
2022/08/22 06:42:28;;;;;;;30.48;21.55;;;;;;;;;;5093396;28;20020;-78
2022/08/22 06:45:20;;;;;;;27.27;23.85;;;;;;;;;;5093540;28;20020;-76
2022/08/22 06:48:07;;;;;;;27.67;22.83;;;;;;;;;;5077123;28;20425;-78
2022/08/22 06:50:38;;;;;;;24.63;21.70;;;;;;;;;;5091189;28;20043;-80
2022/08/22 06:53:30;;;;;;;23.65;21.25;;;;;;;;;;5085158;28;20017;-79
2022/08/22 06:56:01;;;;;;;24.13;21.20;;;;;;;;;;5090886;28;20036;-79
2022/08/22 06:58:56;;;;;;;25.52;22.15;;;;;;;;;;5082793;28;21084;-78
2022/08/22 07:01:25;;;;;;;28.17;24.27;;;;;;;;;;5076032;28;20046;-77
2022/08/22 07:04:12;;;;;;;31.17;23.90;;;;;;;;;;5109916;27;20024;-78
2022/08/22 07:06:40;;;;;;;30.50;23.83;;;;;;;;;;5105606;27;20491;-78
2022/08/22 07:09:06;;;;;;;28.77;22.45;;;;;;;;;;5092009;28;20064;-78
2022/08/22 07:11:36;;;;;;;29.05;22.67;;;;;;;;;;5118686;27;20536;-78
2022/08/22 07:14:04;;;;;;;25.10;22.27;;;;;;;;;;5084473;28;20035;-78
2022/08/22 07:16:42;;;;;;;39.33;22.45;;;;;;;;;;5125467;27;20035;-78
2022/08/22 07:19:09;;;;;;;26.17;23.20;;;;;;;;;;5091597;28;20130;-79
2022/08/22 07:21:46;;;;;;;25.75;22.65;;;;;;;;;;5092395;28;20126;-78
2022/08/22 07:24:20;;;;;;;30.60;22.13;;;;;;;;;;5095380;28;20028;-78
2022/08/22 07:27:00;;;;;;;35.67;22.75;;;;;;;;;;5090426;28;20111;-78
2022/08/22 07:29:32;;;;;;;31.55;22.88;;;;;;;;;;5100737;28;20482;-79
2022/08/22 07:32:04;;;;;;;27.17;21.65;;;;;;;;;;5100905;28;20044;-79
2022/08/22 07:34:39;;;;;;;27.63;18.52;;;;;;;;;;5093269;28;20020;-79
2022/08/22 07:37:10;;;;;;;17.92;16.02;;;;;;;;;;5124051;27;20024;-79
2022/08/22 07:39:45;;;;;;;23.98;19.35;;;;;;;;;;5093215;28;20024;-79
2022/08/22 07:42:30;;;;;;;27.20;20.92;;;;;;;;;;5125433;27;20046;-79
2022/08/22 07:44:59;;;;;;;24.65;21.88;;;;;;;;;;5093075;28;20024;-79
2022/08/22 07:47:30;;;;;;;20.30;18.17;;;;;;;;;;5111592;27;20024;-79
2022/08/22 07:49:58;;;;;;;22.45;20.15;;;;;;;;;;5124436;27;20397;-76
2022/08/22 07:52:24;;;;;;;26.45;21.38;;;;;;;;;;5091426;28;20032;-77
2022/08/22 07:54:55;;;;;;;25.48;19.73;;;;;;;;;;5092294;28;20024;-79
2022/08/22 07:57:24;;;;;;;24.63;21.48;;;;;;;;;;5088928;28;20073;-77
2022/08/22 07:59:55;;;;;;;25.67;21.83;;;;;;;;;;5090811;28;20501;-76
2022/08/22 08:02:22;;;;;;;27.77;21.20;;;;;;;;;;5090870;28;20020;-78
2022/08/22 08:04:50;;;;;;;23.27;20.85;;;;;;;;;;5120261;27;20077;-77
2022/08/22 08:07:17;;;;;;;30.33;21.55;;;;;;;;;;5095743;28;20020;-78
2022/08/22 08:09:52;;;;;;;22.38;19.58;;;;;;;;;;5116100;27;20024;-78
2022/08/22 08:12:20;;;;;;;19.65;17.58;;;;;;;;;;5124657;27;20038;-78
2022/08/22 08:14:49;;;;;;;20.58;18.27;;;;;;;;;;5113610;27;20017;-78
2022/08/22 08:17:22;;;;;;;20.83;18.70;;;;;;;;;;5088599;28;20024;-78
2022/08/22 08:19:49;;;;;;;23.60;18.23;;;;;;;;;;5089040;28;20085;-79
2022/08/22 08:22:18;;;;;;;23.60;18.35;;;;;;;;;;5091738;28;20073;-78
2022/08/22 08:24:45;;;;;;;23.63;17.75;;;;;;;;;;5110085;27;20028;-79
2022/08/22 08:30:35;;;;;;;20.02;16.45;;;;;;;;;;5090611;28;20063;-75
2022/08/22 08:33:03;;;;;;;20.23;17.48;;;;;;;;;;5088850;28;20103;-79
2022/08/22 08:35:31;;;;;;;16.55;14.98;;;;;;;;;;5079455;28;20027;-77
2022/08/22 08:38:16;;;;;;;27.63;19.15;;;;;;;;;;5094433;28;20122;-75
2022/08/22 08:40:53;;;;;;;21.75;17.33;;;;;;;;;;5088143;28;20024;-76
2022/08/22 08:43:45;;;;;;;25.48;18.15;;;;;;;;;;5118210;27;20023;-77
2022/08/22 08:46:13;;;;;;;25.33;18.50;;;;;;;;;;5087150;28;20028;-76
2022/08/22 08:48:58;;;;;;;19.27;17.30;;;;;;;;;;5086901;28;20061;-76
2022/08/22 08:51:24;;;;;;;21.38;19.08;;;;;;;;;;5087405;28;20043;-75
2022/08/22 08:54:02;;;;;;;20.60;18.45;;;;;;;;;;5120284;27;20025;-79
2022/08/22 08:56:28;;;;;;;31.30;21.20;;;;;;;;;;5087958;28;20433;-79
2022/08/22 08:59:10;;;;;;;21.60;18.15;;;;;;;;;;5119535;27;20019;-80
2022/08/22 09:01:56;;;;;;;26.48;19.70;;;;;;;;;;5089955;28;20060;-78
2022/08/22 09:04:54;;;;;;;22.60;17.80;;;;;;;;;;5088534;28;20114;-78
2022/08/22 09:07:30;;;;;;;19.17;17.17;;;;;;;;;;5085959;28;20024;-77
2022/08/22 09:10:15;;;;;;;24.83;20.48;;;;;;;;;;5091518;28;20012;-78
2022/08/22 09:12:47;;;;;;;22.52;19.75;;;;;;;;;;5091578;28;20043;-78
2022/08/22 09:15:19;;;;;;;22.05;19.73;;;;;;;;;;5092358;28;20041;-78
2022/08/22 09:17:45;;;;;;;20.73;18.52;;;;;;;;;;5124629;27;20024;-76
2022/08/22 09:20:26;;;;;;;22.83;20.48;;;;;;;;;;5089180;28;20092;-76
2022/08/22 09:23:11;;;;;;;22.00;19.67;;;;;;;;;;5121113;27;20054;-76
2022/08/22 09:25:56;;;;;;;23.58;20.75;;;;;;;;;;5090666;28;20036;-77
2022/08/22 09:29:02;;;;;;;21.23;17.98;;;;;;;;;;5075040;28;20024;-76
2022/08/22 09:31:34;;;;;;;20.67;18.58;;;;;;;;;;5029419;28;20044;-76
2022/08/22 09:34:04;;;;;;;22.33;20.00;;;;;;;;;;5008395;28;20520;-75
2022/08/22 09:36:39;;;;;;;19.67;17.73;;;;;;;;;;5058719;28;20081;-74
2022/08/22 09:39:23;;;;;;;21.50;19.30;;;;;;;;;;5075929;28;20106;-76
2022/08/22 09:42:07;;;;;;;20.80;18.63;;;;;;;;;;5074242;28;20078;-76
2022/08/22 09:44:33;;;;;;;20.90;18.70;;;;;;;;;;5089540;28;20024;-78
2022/08/22 09:47:17;;;;;;;24.38;19.20;;;;;;;;;;5089243;28;20368;-77
2022/08/22 09:50:03;;;;;;;27.10;22.00;;;;;;;;;;5108897;27;20071;-76
2022/08/22 09:52:32;;;;;;;21.95;19.80;;;;;;;;;;5090836;28;20024;-75
2022/08/22 09:55:30;;;;;;;22.08;19.63;;;;;;;;;;5123606;27;20131;-77
2022/08/22 09:58:07;;;;;;;22.08;19.85;;;;;;;;;;5066531;28;20042;-78
2022/08/22 10:00:39;;;;;;;25.73;20.52;;;;;;;;;;5123571;27;20032;-77
2022/08/22 10:03:24;;;;;;;24.67;20.10;;;;;;;;;;5114240;28;20030;-77
2022/08/22 10:05:55;;;;;;;19.92;17.50;;;;;;;;;;5123216;27;20398;-76
2022/08/22 10:08:30;;;;;;;28.17;18.95;;;;;;;;;;5069155;28;20024;-76
2022/08/22 10:10:56;;;;;;;22.20;19.95;;;;;;;;;;5088853;28;20387;-74
2022/08/22 10:13:42;;;;;;;21.70;19.50;;;;;;;;;;5122910;28;20036;-76
2022/08/22 10:16:27;;;;;;;25.73;21.60;;;;;;;;;;5087638;28;20397;-76
2022/08/22 10:19:12;;;;;;;22.27;20.15;;;;;;;;;;5120029;28;20101;-76
2022/08/22 10:21:46;;;;;;;25.77;20.02;;;;;;;;;;5089751;28;20097;-76
2022/08/22 10:24:15;;;;;;;34.30;25.45;;;;;;;;;;5089415;28;20016;-76
2022/08/22 10:26:50;;;;;;;23.65;21.00;;;;;;;;;;5116116;28;20036;-77
2022/08/22 10:29:25;;;;;;;30.55;20.30;;;;;;;;;;5095605;28;20035;-79
2022/08/22 10:32:11;;;;;;;21.40;19.17;;;;;;;;;;5106366;28;20040;-78
2022/08/22 10:34:41;;;;;;;22.98;19.00;;;;;;;;;;5102628;28;20033;-76
2022/08/22 10:37:16;;;;;;;20.17;18.05;;;;;;;;;;5112012;27;20012;-79
2022/08/22 10:40:01;;;;;;;20.85;18.63;;;;;;;;;;5119318;27;20376;-77
2022/08/22 10:42:37;;;;;;;18.80;16.92;;;;;;;;;;5123377;27;20077;-80
2022/08/22 10:45:27;;;;;;;19.17;17.13;;;;;;;;;;5120313;27;20371;-77
2022/08/22 10:47:53;;;;;;;18.92;17.02;;;;;;;;;;5125976;27;20357;-77
2022/08/22 10:50:25;;;;;;;26.35;18.85;;;;;;;;;;5092384;28;20146;-78
2022/08/22 10:53:28;;;;;;;22.45;19.25;;;;;;;;;;5088835;28;20495;-77
2022/08/22 10:55:41;;;;;;;21.33;19.13;;;;;;;;;;5091593;28;20033;-76
2022/08/22 10:58:14;;;;;;;20.17;18.17;;;;;;;;;;5094311;28;20066;-78
2022/08/22 11:01:00;;;;;;;22.70;20.40;;;;;;;;;;5092321;28;20101;-76
2022/08/22 11:03:49;;;;;;;20.10;18.20;;;;;;;;;;5078944;28;20425;-77
2022/08/22 11:06:22;;;;;;;21.23;18.35;;;;;;;;;;5091372;28;20027;-76
2022/08/22 11:08:51;;;;;;;22.00;19.70;;;;;;;;;;5089677;28;20095;-79
2022/08/22 11:11:20;;;;;;;19.08;17.08;;;;;;;;;;5121334;27;20037;-76
2022/08/22 11:13:58;;;;;;;18.27;16.40;;;;;;;;;;5089677;28;20023;-77
2022/08/22 11:16:27;;;;;;;21.38;17.98;;;;;;;;;;5088129;28;20028;-74
2022/08/22 11:19:01;;;;;;;20.27;18.25;;;;;;;;;;5118940;27;20035;-78
2022/08/22 11:21:27;;;;;;;19.95;18.05;;;;;;;;;;5090640;28;20048;-78
2022/08/22 11:24:26;;;;;;;21.20;19.10;;;;;;;;;;5092426;28;20542;-77
2022/08/22 11:26:55;;;;;;;21.63;19.00;;;;;;;;;;5052170;28;20384;-75
2022/08/22 11:29:30;;;;;;;20.63;18.55;;;;;;;;;;5092963;28;20475;-77
2022/08/22 11:32:01;;;;;;;20.52;18.55;;;;;;;;;;5090760;28;20039;-77
2022/08/22 11:34:39;;;;;;;20.83;18.75;;;;;;;;;;5079734;28;20020;-79
2022/08/22 11:37:17;;;;;;;20.48;18.60;;;;;;;;;;5090660;28;20026;-79
2022/08/22 11:39:48;;;;;;;23.10;20.35;;;;;;;;;;5092054;28;20089;-78
2022/08/22 11:42:15;;;;;;;24.77;18.77;;;;;;;;;;5090194;28;20077;-79
2022/08/22 11:44:58;;;;;;;22.63;20.30;;;;;;;;;;5091159;28;20020;-77
2022/08/22 11:47:24;;;;;;;;;;;;;;;;;;5090957;28;20024;-78
2022/08/22 11:49:59;;;;;;;22.30;19.48;;;;;;;;;;5090002;28;19983;-78
2022/08/22 11:52:25;;;;;;;21.65;19.30;;;;;;;;;;5090744;28;20044;-77
2022/08/22 11:55:07;;;;;;;20.70;18.77;;;;;;;;;;5092304;28;20016;-78
2022/08/22 11:57:36;;;;;;;21.02;18.77;;;;;;;;;;5091863;28;20071;-79
2022/08/22 12:00:02;;;;;;;20.08;18.17;;;;;;;;;;5118847;27;20024;-78
2022/08/22 12:02:28;;;;;;;19.40;17.40;;;;;;;;;;5087699;28;20024;-77
2022/08/22 12:05:03;;;;;;;18.40;16.42;;;;;;;;;;5091956;28;20024;-76
2022/08/22 12:07:33;;;;;;;17.95;16.23;;;;;;;;;;5089256;28;20028;-76
2022/08/22 12:10:02;;;;;;;19.05;17.35;;;;;;;;;;5121542;27;20020;-76
2022/08/22 12:12:46;;;;;;;20.55;18.25;;;;;;;;;;5087865;28;20039;-76
2022/08/22 12:15:17;;;;;;;19.23;17.52;;;;;;;;;;5094219;28;20541;-77
2022/08/22 12:18:02;;;;;;;19.70;17.77;;;;;;;;;;5091831;28;20107;-77
2022/08/22 12:20:47;;;;;;;20.48;18.42;;;;;;;;;;5089865;28;20024;-76
2022/08/22 12:23:31;;;;;;;19.58;17.48;;;;;;;;;;5088518;28;20032;-77
2022/08/22 12:26:09;;;;;;;18.50;16.65;;;;;;;;;;5084852;28;20095;-76
2022/08/22 12:28:49;;;;;;;17.27;15.77;;;;;;;;;;5102255;28;20434;-74
2022/08/22 12:31:45;;;;;;;17.17;15.57;;;;;;;;;;5119633;27;20487;-74
2022/08/22 12:34:11;;;;;;;17.35;15.77;;;;;;;;;;5020117;28;20040;-75
2022/08/22 12:36:43;;;;;;;18.23;16.48;;;;;;;;;;5124387;27;20028;-73
2022/08/22 12:39:28;;;;;;;18.58;16.92;;;;;;;;;;5086417;28;20020;-74
2022/08/22 12:42:03;;;;;;;15.85;14.45;;;;;;;;;;5085393;28;20421;-77
2022/08/22 12:44:38;;;;;;;17.27;15.57;;;;;;;;;;5086679;28;20483;-76
2022/08/22 12:47:08;;;;;;;16.88;15.38;;;;;;;;;;5086727;28;20040;-78
2022/08/22 12:49:37;;;;;;;16.40;14.73;;;;;;;;;;5084715;28;20024;-77
2022/08/22 12:52:15;;;;;;;16.88;13.65;;;;;;;;;;5088430;28;20410;-78
2022/08/22 12:54:50;;;;;;;17.02;13.23;;;;;;;;;;5080146;28;20115;-79
2022/08/22 12:57:19;;;;;;;15.63;14.10;;;;;;;;;;5123950;27;20100;-77
2022/08/22 12:59:47;;;;;;;14.02;12.73;;;;;;;;;;5086232;28;20051;-77
2022/08/22 13:02:18;;;;;;;15.90;14.45;;;;;;;;;;5089743;28;20136;-78
2022/08/22 13:04:48;;;;;;;15.60;13.95;;;;;;;;;;5085787;28;20027;-76
2022/08/22 13:07:20;;;;;;;15.13;13.75;;;;;;;;;;5089780;28;20020;-78
2022/08/22 13:09:51;;;;;;;14.57;13.27;;;;;;;;;;5116575;27;20034;-78
2022/08/22 13:12:24;;;;;;;17.80;16.10;;;;;;;;;;5117397;27;20043;-77
2022/08/22 13:14:53;;;;;;;15.52;14.00;;;;;;;;;;5085078;28;20027;-78
2022/08/22 13:17:20;;;;;;;18.75;16.77;;;;;;;;;;5089180;28;20077;-78
2022/08/22 13:20:08;;;;;;;16.23;14.63;;;;;;;;;;5089478;28;20028;-78
2022/08/22 13:22:35;;;;;;;14.48;13.07;;;;;;;;;;5079088;28;20044;-77
2022/08/22 13:25:06;;;;;;;14.80;13.18;;;;;;;;;;5090474;28;20475;-78
2022/08/22 13:27:34;;;;;;;15.87;14.57;;;;;;;;;;5090507;28;20099;-79
2022/08/22 13:30:02;;;;;;;15.10;13.80;;;;;;;;;;5090624;28;20019;-78
2022/08/22 13:32:32;;;;;;;14.73;13.35;;;;;;;;;;5090282;28;20399;-76
2022/08/22 13:34:58;;;;;;;44.17;40.30;;;;;;;;;;5088624;28;20043;-77
2022/08/22 13:37:29;;;;;;;16.45;14.45;;;;;;;;;;5090230;28;20486;-76
2022/08/22 13:39:59;;;;;;;15.90;14.23;;;;;;;;;;5089732;28;20024;-76
2022/08/22 13:42:26;;;;;;;14.98;13.38;;;;;;;;;;5089608;28;20046;-76
2022/08/22 13:44:54;;;;;;;14.93;13.60;;;;;;;;;;5088435;28;20016;-78
2022/08/22 13:47:22;;;;;;;15.07;13.73;;;;;;;;;;5087909;28;20016;-79
2022/08/22 13:49:54;;;;;;;17.40;15.65;;;;;;;;;;5121953;28;20153;-77
2022/08/22 13:52:22;;;;;;;17.20;14.88;;;;;;;;;;5088756;28;20028;-77
2022/08/22 13:55:07;;;;;;;16.33;14.77;;;;;;;;;;5081301;28;20032;-79
2022/08/22 13:57:36;;;;;;;17.48;15.93;;;;;;;;;;5085876;28;20024;-76
2022/08/22 14:00:02;;;;;;;16.50;14.88;;;;;;;;;;5087126;28;20475;-76
2022/08/22 14:02:47;;;;;;;16.17;14.88;;;;;;;;;;5084212;28;20020;-77
2022/08/22 14:05:20;;;;;;;20.08;18.10;;;;;;;;;;5089457;28;20103;-78
2022/08/22 14:07:47;;;;;;;20.05;18.00;;;;;;;;;;5090458;28;20020;-77
2022/08/22 14:10:19;;;;;;;17.67;15.85;;;;;;;;;;5124201;27;20020;-79
2022/08/22 14:12:49;;;;;;;21.58;18.23;;;;;;;;;;5093918;28;20064;-78
2022/08/22 14:15:19;;;;;;;18.98;16.23;;;;;;;;;;5094293;28;20027;-77
2022/08/22 14:17:46;;;;;;;19.88;17.90;;;;;;;;;;5093255;28;20148;-76
2022/08/22 14:20:14;;;;;;;17.83;16.33;;;;;;;;;;5090302;28;20079;-76
2022/08/22 14:22:53;;;;;;;21.02;18.83;;;;;;;;;;5091368;28;20053;-77
2022/08/22 14:25:21;;;;;;;23.00;18.95;;;;;;;;;;5091721;28;20028;-75
2022/08/22 14:27:51;;;;;;;20.38;18.35;;;;;;;;;;5093716;28;20059;-76
2022/08/22 14:30:19;;;;;;;21.60;18.42;;;;;;;;;;5092635;28;20372;-75
2022/08/22 14:32:48;;;;;;;30.65;27.52;;;;;;;;;;5093558;28;20080;-78
2022/08/22 14:35:25;;;;;;;29.83;22.60;;;;;;;;;;5092326;28;20024;-75
2022/08/22 14:37:53;;;;;;;24.48;22.13;;;;;;;;;;5093587;28;20016;-80
2022/08/22 14:40:24;;;;;;;30.00;26.95;;;;;;;;;;5081831;28;20046;-79
2022/08/22 14:42:54;;;;;;;27.42;24.83;;;;;;;;;;5091526;28;20028;-76
2022/08/22 14:45:22;;;;;;;31.25;24.85;;;;;;;;;;5091474;28;20537;-76
2022/08/22 14:47:58;;;;;;;28.25;25.33;;;;;;;;;;5077919;28;20020;-77
2022/08/22 14:50:33;;;;;;;39.08;35.28;;;;;;;;;;5079252;28;20081;-78
2022/08/22 14:53:10;;;;;;;33.05;29.77;;;;;;;;;;5125404;27;20028;-78
2022/08/22 14:55:37;;;;;;;27.55;24.88;;;;;;;;;;5085767;28;20440;-76
2022/08/22 14:58:22;;;;;;;26.77;23.92;;;;;;;;;;5085207;28;20012;-78
2022/08/22 15:00:50;;;;;;;31.00;28.00;;;;;;;;;;5088548;28;20092;-76
2022/08/22 15:03:25;;;;;;;26.10;23.27;;;;;;;;;;5092203;28;20024;-77
2022/08/22 15:06:02;;;;;;;28.70;26.02;;;;;;;;;;5089961;28;20024;-77